createdAt,value
2022-10-14T00:01:25.937Z,4.30
2022-10-14T00:04:10.706Z,4.48
2022-10-14T00:06:38.688Z,4.38
2022-10-14T00:09:09.064Z,4.42
2022-10-14T00:11:38.150Z,4.49
2022-10-14T00:14:10.765Z,4.50
2022-10-14T00:16:40.517Z,4.44
2022-10-14T00:19:12.256Z,4.50
2022-10-14T00:21:43.560Z,4.48
2022-10-14T00:24:14.206Z,4.52
2022-10-14T00:26:42.467Z,4.51
2022-10-14T00:29:15.473Z,4.50
2022-10-14T00:31:43.368Z,4.49
2022-10-14T00:34:16.112Z,4.50
2022-10-14T00:36:44.991Z,4.55
2022-10-14T00:39:16.687Z,4.65
2022-10-14T00:41:45.457Z,4.72
2022-10-14T00:44:16.015Z,4.75
2022-10-14T00:46:51.325Z,4.88
2022-10-14T00:49:39.647Z,4.86
2022-10-14T00:52:15.140Z,4.90
2022-10-14T00:55:10.258Z,4.96
2022-10-14T00:57:38.913Z,4.99
2022-10-14T01:00:13.373Z,5.05
2022-10-14T01:02:41.786Z,5.13
2022-10-14T01:05:12.300Z,5.12
2022-10-14T01:07:45.538Z,5.37
2022-10-14T01:10:21.682Z,5.51
2022-10-14T01:13:11.126Z,5.59
2022-10-14T01:15:51.833Z,5.60
2022-10-14T01:18:28.615Z,5.74
2022-10-14T01:20:56.542Z,5.90
2022-10-14T01:24:01.267Z,5.90
2022-10-14T01:26:58.230Z,5.92
2022-10-14T01:29:41.722Z,5.94
2022-10-14T01:32:21.745Z,6.05
2022-10-14T01:35:21.591Z,5.90
2022-10-14T01:38:13.588Z,5.96
2022-10-14T01:40:57.110Z,5.89
2022-10-14T01:43:28.432Z,5.97
2022-10-14T01:45:58.584Z,5.99
2022-10-14T01:48:32.893Z,5.79
2022-10-14T01:51:07.190Z,5.89
2022-10-14T01:53:42.106Z,5.76
2022-10-14T01:56:12.485Z,5.67
2022-10-14T01:58:41.626Z,5.82
2022-10-14T02:01:10.032Z,5.67
2022-10-14T02:03:43.967Z,5.57
2022-10-14T02:06:14.817Z,5.48
2022-10-14T02:09:08.867Z,5.58
2022-10-14T02:12:14.624Z,5.53
2022-10-14T02:14:59.864Z,5.57
2022-10-14T02:17:47.545Z,5.53
2022-10-14T02:20:32.130Z,5.47
2022-10-14T02:23:06.587Z,5.67
2022-10-14T02:25:40.142Z,5.72
2022-10-14T02:28:12.093Z,5.59
2022-10-14T02:30:45.326Z,5.65
2022-10-14T02:33:16.040Z,5.65
2022-10-14T02:35:44.134Z,5.69
2022-10-14T02:38:11.909Z,5.68
2022-10-14T02:40:50.394Z,5.69
2022-10-14T02:43:18.601Z,5.61
2022-10-14T02:45:46.798Z,5.69
2022-10-14T02:48:14.949Z,5.65
2022-10-14T02:50:43.126Z,5.69
2022-10-14T02:53:14.670Z,5.73
2022-10-14T02:55:46.521Z,5.66
2022-10-14T02:58:14.549Z,5.67
2022-10-14T03:00:42.311Z,5.75
2022-10-14T03:03:11.195Z,5.83
2022-10-14T03:05:39.811Z,5.97
2022-10-14T03:08:12.944Z,5.97
2022-10-14T03:10:41.710Z,5.90
2022-10-14T03:13:11.692Z,5.91
2022-10-14T03:15:44.035Z,6.00
2022-10-14T03:18:12.750Z,5.91
2022-10-14T03:20:45.944Z,5.92
2022-10-14T03:23:18.578Z,6.00
2022-10-14T03:25:49.947Z,6.08
2022-10-14T03:28:24.672Z,5.93
2022-10-14T03:30:59.722Z,5.94
2022-10-14T03:33:47.263Z,5.91
2022-10-14T03:36:19.045Z,5.89
2022-10-14T03:38:51.816Z,5.87
2022-10-14T03:41:33.410Z,5.84
2022-10-14T03:44:01.730Z,5.86
2022-10-14T03:46:31.114Z,5.83
2022-10-14T03:48:59.455Z,5.96
2022-10-14T03:51:28.038Z,5.96
2022-10-14T03:54:07.007Z,5.99
2022-10-14T03:56:34.786Z,6.01
2022-10-14T03:59:06.365Z,6.08
2022-10-14T04:01:34.229Z,6.13
2022-10-14T04:04:22.989Z,6.12
2022-10-14T04:06:50.901Z,6.13
2022-10-14T04:09:21.225Z,6.06
2022-10-14T04:11:49.753Z,6.08
2022-10-14T04:14:46.547Z,6.27
2022-10-14T04:17:15.117Z,6.31
2022-10-14T04:19:44.359Z,6.36
2022-10-14T04:22:14.960Z,6.42
2022-10-14T04:24:46.830Z,6.41
2022-10-14T04:27:14.746Z,6.44
2022-10-14T04:29:50.229Z,6.55
2022-10-14T04:32:26.115Z,6.79
2022-10-14T04:34:55.067Z,6.71
2022-10-14T04:37:25.822Z,6.70
2022-10-14T04:40:08.396Z,6.75
2022-10-14T04:42:42.971Z,6.74
2022-10-14T04:45:20.377Z,6.72
2022-10-14T04:47:54.670Z,6.85
2022-10-14T04:50:24.897Z,6.75
2022-10-14T04:53:13.711Z,6.68
2022-10-14T04:55:54.659Z,6.60
2022-10-14T04:58:22.413Z,6.55
2022-10-14T05:00:50.782Z,6.51
2022-10-14T05:03:44.595Z,6.41
2022-10-14T05:06:13.317Z,6.42
2022-10-14T05:08:44.866Z,6.29
2022-10-14T05:11:14.505Z,6.29
2022-10-14T05:13:48.504Z,6.31
2022-10-14T05:16:17.609Z,6.35
2022-10-14T05:18:45.502Z,6.40
2022-10-14T05:21:15.238Z,6.46
2022-10-14T05:23:53.588Z,6.50
2022-10-14T05:26:21.510Z,6.49
2022-10-14T05:28:52.709Z,6.42
2022-10-14T05:31:21.862Z,6.45
2022-10-14T05:33:58.492Z,6.48
2022-10-14T05:36:26.209Z,6.62
2022-10-14T05:38:58.643Z,6.63
2022-10-14T05:41:30.452Z,6.83
2022-10-14T05:43:59.759Z,7.12
2022-10-14T05:46:31.041Z,7.22
2022-10-14T05:49:00.459Z,7.27
2022-10-14T05:51:28.913Z,7.48
2022-10-14T05:54:06.388Z,7.62
2022-10-14T05:56:34.224Z,7.78
2022-10-14T05:59:03.611Z,7.61
2022-10-14T06:01:34.672Z,7.74
2022-10-14T06:04:03.237Z,7.82
2022-10-14T06:06:30.949Z,8.00
2022-10-14T06:08:59.006Z,8.14
2022-10-14T06:11:26.857Z,8.30
2022-10-14T06:13:54.606Z,8.42
2022-10-14T06:16:22.650Z,8.51
2022-10-14T06:18:54.306Z,8.75
2022-10-14T06:21:23.544Z,8.83
2022-10-14T06:23:51.444Z,9.06
2022-10-14T06:26:19.420Z,9.09
2022-10-14T06:28:47.413Z,9.23
2022-10-14T06:31:15.396Z,9.33
2022-10-14T06:33:44.139Z,9.47
2022-10-14T06:36:12.257Z,9.66
2022-10-14T06:38:40.004Z,9.76
2022-10-14T06:41:07.950Z,9.85
2022-10-14T06:43:35.876Z,9.96
2022-10-14T06:46:04.309Z,10.30
2022-10-14T06:48:32.408Z,10.27
2022-10-14T06:51:01.545Z,10.32
2022-10-14T06:53:30.111Z,10.49
2022-10-14T06:56:02.535Z,10.56
2022-10-14T06:58:31.808Z,10.60
2022-10-14T07:01:07.740Z,10.89
2022-10-14T07:03:38.803Z,11.02
2022-10-14T07:06:08.228Z,11.24
2022-10-14T07:08:39.122Z,11.37
2022-10-14T07:11:07.813Z,11.61
2022-10-14T07:13:35.859Z,11.55
2022-10-14T07:16:04.344Z,11.71
2022-10-14T07:18:32.712Z,11.61
2022-10-14T07:21:05.070Z,11.81
2022-10-14T07:23:33.673Z,12.05
2022-10-14T07:26:01.878Z,12.01
2022-10-14T07:28:29.914Z,12.13
2022-10-14T07:31:03.547Z,12.15
2022-10-14T07:33:32.169Z,12.31
2022-10-14T07:36:05.549Z,12.29
2022-10-14T07:38:33.659Z,12.46
2022-10-14T07:41:04.986Z,12.47
2022-10-14T07:43:33.934Z,12.76
2022-10-14T07:46:05.226Z,13.02
2022-10-14T07:48:52.323Z,13.12
2022-10-14T07:51:22.056Z,13.18
2022-10-14T07:53:50.290Z,13.75
2022-10-14T07:56:18.237Z,13.82
2022-10-14T07:58:46.621Z,13.79
2022-10-14T08:01:16.118Z,14.05
2022-10-14T08:03:44.939Z,14.10
2022-10-14T08:06:13.585Z,14.33
2022-10-14T08:08:41.577Z,14.21
2022-10-14T08:11:22.908Z,14.25
2022-10-14T08:13:51.298Z,14.86
2022-10-14T08:16:21.366Z,15.11
2022-10-14T08:18:49.870Z,15.70
2022-10-14T08:21:19.238Z,15.82
2022-10-14T08:23:47.399Z,16.23
2022-10-14T08:26:39.240Z,17.68
2022-10-14T08:29:11.116Z,19.36
2022-10-14T08:31:39.142Z,20.18
2022-10-14T08:34:07.117Z,20.82
2022-10-14T08:36:34.814Z,21.12
2022-10-14T08:39:02.917Z,21.49
2022-10-14T08:41:39.661Z,21.62
2022-10-14T08:44:19.610Z,22.17
2022-10-14T08:46:52.666Z,22.42
2022-10-14T08:49:45.841Z,22.29
2022-10-14T08:52:19.062Z,22.74
2022-10-14T08:54:57.719Z,23.08
2022-10-14T08:57:41.958Z,23.64
2022-10-14T09:00:12.496Z,22.93
2022-10-14T09:02:40.200Z,22.77
2022-10-14T09:05:13.696Z,22.39
2022-10-14T09:07:42.365Z,22.17
2022-10-14T09:10:23.549Z,21.94
2022-10-14T09:12:53.709Z,22.08
2022-10-14T09:15:37.138Z,22.68
2022-10-14T09:18:07.227Z,22.46
2022-10-14T09:20:35.390Z,22.15
2022-10-14T09:23:15.928Z,21.55
2022-10-14T09:26:11.624Z,20.81
2022-10-14T09:28:43.554Z,20.53
2022-10-14T09:31:13.919Z,20.34
2022-10-14T09:33:44.400Z,20.76
2022-10-14T09:36:20.927Z,21.51
2022-10-14T09:38:54.311Z,22.34
2022-10-14T09:41:30.687Z,22.57
2022-10-14T09:44:25.811Z,22.65
2022-10-14T09:46:59.817Z,22.83
2022-10-14T09:49:47.008Z,23.50
2022-10-14T09:52:23.857Z,23.20
2022-10-14T09:54:57.509Z,23.49
2022-10-14T09:57:26.001Z,23.48
2022-10-14T10:00:03.945Z,23.69
2022-10-14T10:02:42.323Z,23.30
2022-10-14T10:05:33.245Z,22.52
2022-10-14T10:08:19.327Z,21.71
2022-10-14T10:11:06.948Z,21.40
2022-10-14T10:13:43.933Z,21.04
2022-10-14T10:16:34.732Z,20.52
2022-10-14T10:19:23.735Z,20.31
2022-10-14T10:21:51.699Z,20.06
2022-10-14T10:24:26.014Z,20.11
2022-10-14T10:26:56.634Z,20.03
2022-10-14T10:29:34.511Z,20.08
2022-10-14T10:32:30.265Z,19.96
2022-10-14T10:35:14.068Z,19.90
2022-10-14T10:37:52.568Z,19.80
2022-10-14T10:40:32.592Z,19.73
2022-10-14T10:43:28.866Z,19.84
2022-10-14T10:45:59.620Z,19.73
2022-10-14T10:48:27.562Z,19.42
2022-10-14T10:51:08.183Z,19.30
2022-10-14T10:53:55.574Z,19.37
2022-10-14T10:56:26.043Z,19.50
2022-10-14T10:59:15.609Z,19.69
2022-10-14T11:01:55.354Z,19.57
2022-10-14T11:04:26.197Z,19.67
2022-10-14T11:07:28.233Z,19.55
2022-10-14T11:10:33.043Z,19.32
2022-10-14T11:13:12.655Z,19.02
2022-10-14T11:15:49.674Z,19.00
2022-10-14T11:18:30.898Z,19.25
2022-10-14T11:21:13.824Z,19.30
2022-10-14T11:23:50.332Z,19.12
2022-10-14T11:26:28.017Z,19.02
2022-10-14T11:29:25.016Z,18.82
2022-10-14T11:32:21.385Z,18.79
2022-10-14T11:35:23.254Z,18.75
2022-10-14T11:38:38.514Z,18.68
2022-10-14T11:41:26.473Z,18.77
2022-10-14T11:43:58.558Z,18.91
2022-10-14T11:46:35.328Z,19.08
2022-10-14T11:49:14.056Z,18.98
2022-10-14T11:51:55.876Z,18.98
2022-10-14T11:54:52.972Z,19.35
2022-10-14T11:57:35.187Z,19.45
2022-10-14T12:00:22.419Z,19.34
2022-10-14T12:03:48.522Z,19.27
2022-10-14T12:06:26.164Z,19.10
2022-10-14T12:09:32.217Z,18.93
2022-10-14T12:12:04.727Z,19.10
2022-10-14T12:14:32.371Z,19.09
2022-10-14T12:17:04.546Z,18.94
2022-10-14T12:19:33.385Z,18.78
2022-10-14T12:22:31.850Z,18.88
2022-10-14T12:25:12.610Z,18.74
2022-10-14T12:27:41.080Z,18.69
2022-10-14T12:30:42.020Z,18.75
2022-10-14T12:33:13.173Z,18.63
2022-10-14T12:35:59.142Z,18.45
2022-10-14T12:38:29.226Z,18.27
2022-10-14T12:41:34.493Z,18.20
2022-10-14T12:44:14.109Z,18.19
2022-10-14T12:46:47.658Z,18.11
2022-10-14T12:49:31.255Z,18.17
2022-10-14T12:52:05.782Z,18.24
2022-10-14T12:54:37.340Z,18.29
2022-10-14T12:57:30.178Z,18.21
2022-10-14T13:00:01.778Z,18.16
2022-10-14T13:02:44.697Z,18.29
2022-10-14T13:05:34.343Z,18.31
2022-10-14T13:08:20.441Z,18.22
2022-10-14T13:10:50.482Z,18.05
2022-10-14T13:13:37.218Z,17.99
2022-10-14T13:16:28.317Z,17.88
2022-10-14T13:18:58.408Z,17.77
2022-10-14T13:21:35.029Z,17.80
2022-10-14T13:24:07.821Z,17.63
2022-10-14T13:26:53.592Z,17.54
2022-10-14T13:29:40.160Z,17.41
2022-10-14T13:32:49.061Z,17.48
2022-10-14T13:35:30.978Z,17.41
2022-10-14T13:38:01.356Z,17.27
2022-10-14T13:40:45.370Z,17.24
2022-10-14T13:43:40.572Z,17.07
2022-10-14T13:46:30.010Z,17.03
2022-10-14T13:49:02.404Z,17.08
2022-10-14T13:51:36.937Z,17.05
2022-10-14T13:54:26.706Z,16.93
2022-10-14T14:00:40.329Z,16.92
2022-10-14T14:03:36.872Z,17.02
2022-10-14T14:06:13.091Z,17.13
2022-10-14T14:08:55.399Z,17.12
2022-10-14T14:11:25.014Z,17.00
2022-10-14T14:13:58.943Z,16.89
2022-10-14T14:16:37.963Z,16.79
2022-10-14T14:19:10.437Z,16.60
2022-10-14T14:21:38.930Z,16.20
2022-10-14T14:24:23.458Z,16.10
2022-10-14T14:26:56.123Z,16.04
2022-10-14T14:29:31.129Z,15.94
2022-10-14T14:32:08.785Z,15.93
2022-10-14T14:34:39.948Z,15.71
2022-10-14T14:40:19.028Z,15.75
2022-10-14T14:42:49.264Z,15.73
2022-10-14T14:45:25.537Z,15.60
2022-10-14T14:47:57.133Z,15.57
2022-10-14T14:50:33.709Z,15.53
2022-10-14T14:53:07.097Z,15.39
2022-10-14T14:55:39.834Z,15.36
2022-10-14T14:58:36.195Z,15.28
2022-10-14T15:01:07.689Z,15.27
2022-10-14T15:04:15.383Z,15.09
2022-10-14T15:07:17.476Z,15.06
2022-10-14T15:09:52.160Z,15.02
2022-10-14T15:12:30.725Z,15.14
2022-10-14T15:15:02.340Z,15.04
2022-10-14T15:17:34.392Z,14.86
2022-10-14T15:20:05.327Z,14.84
2022-10-14T15:22:44.760Z,14.71
2022-10-14T15:25:21.390Z,14.70
2022-10-14T15:27:52.046Z,14.62
2022-10-14T15:30:40.518Z,14.52
2022-10-14T15:33:15.745Z,14.55
2022-10-14T15:35:45.690Z,14.49
2022-10-14T15:38:17.027Z,14.49
2022-10-14T15:40:46.764Z,14.54
2022-10-14T15:43:18.050Z,14.33
2022-10-14T15:46:12.054Z,14.31
2022-10-14T15:48:58.617Z,14.22
2022-10-14T15:51:30.614Z,14.19
2022-10-14T15:53:59.113Z,14.08
2022-10-14T15:56:27.016Z,14.05
2022-10-14T15:58:54.925Z,14.10
2022-10-14T16:01:24.240Z,14.18
2022-10-14T16:03:52.537Z,14.04
2022-10-14T16:06:22.774Z,13.96
2022-10-14T16:08:51.101Z,13.89
2022-10-14T16:11:31.013Z,13.82
2022-10-14T16:13:59.124Z,13.76
2022-10-14T16:16:40.642Z,13.54
2022-10-14T16:19:08.558Z,13.44
2022-10-14T16:21:36.850Z,13.38
2022-10-14T16:24:05.521Z,13.32
2022-10-14T16:26:33.589Z,13.25
2022-10-14T16:29:03.353Z,13.23
2022-10-14T16:31:31.365Z,13.18
2022-10-14T16:33:59.113Z,13.08
2022-10-14T16:36:26.915Z,13.16
2022-10-14T16:38:57.502Z,13.23
2022-10-14T16:41:27.791Z,13.26
2022-10-14T16:43:55.521Z,13.18
2022-10-14T16:46:46.199Z,13.03
2022-10-14T16:49:15.058Z,13.20
2022-10-14T16:51:44.084Z,13.16
2022-10-14T16:54:12.451Z,13.19
2022-10-14T16:56:53.478Z,13.19
2022-10-14T16:59:22.586Z,13.12
2022-10-14T17:01:51.196Z,13.05
2022-10-14T17:04:23.272Z,13.06
2022-10-14T17:06:58.654Z,13.07
2022-10-14T17:09:26.615Z,12.98
2022-10-14T17:11:55.051Z,12.99
2022-10-14T17:14:24.328Z,12.94
2022-10-14T17:16:52.476Z,13.00
2022-10-14T17:19:20.887Z,12.86
2022-10-14T17:21:49.186Z,12.90
2022-10-14T17:24:17.465Z,12.79
2022-10-14T17:26:45.620Z,12.84
2022-10-14T17:29:13.425Z,12.80
2022-10-14T17:31:41.810Z,12.78
2022-10-14T17:34:10.821Z,12.83
2022-10-14T17:36:40.179Z,12.81
2022-10-14T17:39:16.382Z,12.77
2022-10-14T17:41:49.071Z,12.61
2022-10-14T17:44:16.965Z,12.46
2022-10-14T17:46:45.143Z,12.46
2022-10-14T17:49:13.177Z,12.36
2022-10-14T17:51:41.111Z,12.32
2022-10-14T17:54:12.095Z,12.21
2022-10-14T17:56:40.998Z,12.28
2022-10-14T17:59:12.042Z,12.24
2022-10-14T18:04:27.921Z,12.13
2022-10-14T18:06:55.773Z,12.25
2022-10-14T18:09:23.687Z,12.13
2022-10-14T18:12:09.098Z,12.12
2022-10-14T18:14:40.707Z,12.21
2022-10-14T18:17:12.909Z,12.07
2022-10-14T18:19:42.048Z,11.93
2022-10-14T18:22:11.188Z,12.04
2022-10-14T18:24:39.631Z,11.98
2022-10-14T18:27:07.453Z,12.08
2022-10-14T18:29:36.841Z,12.05
2022-10-14T18:32:05.481Z,12.10
2022-10-14T18:34:35.671Z,11.94
2022-10-14T18:37:03.748Z,11.86
2022-10-14T18:39:31.716Z,11.81
2022-10-14T18:41:59.412Z,11.80
2022-10-14T18:44:27.497Z,11.64
2022-10-14T18:46:55.300Z,11.61
2022-10-14T18:49:23.337Z,11.51
2022-10-14T18:51:53.195Z,11.40
2022-10-14T18:54:25.072Z,11.40
2022-10-14T18:56:54.105Z,11.37
2022-10-14T18:59:23.466Z,11.33
2022-10-14T19:01:53.236Z,11.26
2022-10-14T19:04:24.342Z,11.25
2022-10-14T19:06:53.194Z,11.30
2022-10-14T19:09:24.761Z,11.19
2022-10-14T19:11:54.238Z,11.16
2022-10-14T19:14:22.525Z,11.15
2022-10-14T19:16:51.044Z,11.07
2022-10-14T19:19:20.362Z,11.08
2022-10-14T19:21:54.443Z,11.00
2022-10-14T19:24:22.539Z,10.91
2022-10-14T19:26:50.471Z,10.86
2022-10-14T19:29:18.257Z,10.84
2022-10-14T19:31:46.191Z,11.03
2022-10-14T19:34:16.305Z,11.06
2022-10-14T19:36:45.773Z,10.99
2022-10-14T19:39:16.424Z,10.96
2022-10-14T19:41:46.537Z,11.00
2022-10-14T19:44:16.141Z,11.17
2022-10-14T19:46:45.049Z,11.05
2022-10-14T19:49:15.035Z,11.07
2022-10-14T19:51:44.148Z,11.14
2022-10-14T19:54:13.087Z,11.19
2022-10-14T19:56:41.330Z,11.18
2022-10-14T19:59:10.014Z,11.18
2022-10-14T20:01:37.889Z,11.19
2022-10-14T20:04:06.106Z,11.19
2022-10-14T20:06:35.876Z,11.32
2022-10-14T20:09:04.357Z,11.20
2022-10-14T20:11:34.678Z,11.17
2022-10-14T20:14:02.644Z,11.13
2022-10-14T20:16:30.697Z,11.29
2022-10-14T20:18:58.561Z,11.36
2022-10-14T20:21:26.936Z,11.40
2022-10-14T20:23:54.966Z,11.28
2022-10-14T20:26:23.047Z,11.38
2022-10-14T20:28:51.699Z,11.31
2022-10-14T20:31:22.517Z,11.40
2022-10-14T20:33:50.289Z,11.42
2022-10-14T20:36:20.178Z,11.33
2022-10-14T20:38:49.413Z,11.36
2022-10-14T20:41:23.069Z,11.36
2022-10-14T20:43:51.568Z,11.22
2022-10-14T20:46:19.837Z,11.38
2022-10-14T20:48:47.793Z,11.31
2022-10-14T20:51:20.206Z,11.34
2022-10-14T20:53:48.062Z,11.48
2022-10-14T20:56:16.149Z,11.31
2022-10-14T20:58:44.065Z,11.21
2022-10-14T21:01:16.848Z,11.23
2022-10-14T21:03:46.167Z,11.24
2022-10-14T21:06:20.542Z,11.33
2022-10-14T21:08:49.783Z,11.14
2022-10-14T21:11:20.871Z,11.06
2022-10-14T21:13:52.369Z,10.90
2022-10-14T21:16:24.890Z,10.78
2022-10-14T21:18:58.808Z,10.70
2022-10-14T21:21:34.007Z,10.64
2022-10-14T21:24:02.097Z,10.45
2022-10-14T21:26:30.316Z,10.33
2022-10-14T21:28:59.763Z,10.27
2022-10-14T21:31:27.801Z,10.18
2022-10-14T21:34:02.524Z,10.08
2022-10-14T21:36:37.091Z,10.06
2022-10-14T21:39:10.123Z,10.10
2022-10-14T21:41:38.886Z,9.94
2022-10-14T21:44:08.089Z,9.83
2022-10-14T21:46:36.567Z,9.77
2022-10-14T21:49:04.508Z,9.70
2022-10-14T21:51:32.944Z,9.65
2022-10-14T21:54:00.850Z,9.65
2022-10-14T21:56:29.447Z,9.56
2022-10-14T21:58:57.854Z,9.39
2022-10-14T22:01:29.007Z,9.44
2022-10-14T22:04:05.415Z,9.31
2022-10-14T22:06:34.943Z,9.28
2022-10-14T22:09:06.046Z,9.21
2022-10-14T22:11:37.681Z,9.19
2022-10-14T22:14:08.580Z,9.19
2022-10-14T22:16:36.609Z,9.25
2022-10-14T22:19:06.323Z,9.17
2022-10-14T22:21:36.593Z,9.12
2022-10-14T22:24:05.221Z,9.15
2022-10-14T22:26:33.785Z,9.10
2022-10-14T22:29:04.705Z,9.11
2022-10-14T22:31:34.677Z,9.05
2022-10-14T22:34:04.722Z,9.08
2022-10-14T22:36:34.700Z,8.91
2022-10-14T22:39:06.593Z,8.88
2022-10-14T22:41:35.851Z,8.89
2022-10-14T22:44:05.416Z,8.73
2022-10-14T22:46:35.377Z,8.78
2022-10-14T22:49:04.251Z,8.74
2022-10-14T22:51:35.087Z,8.68
2022-10-14T22:54:03.494Z,8.72
2022-10-14T22:56:32.491Z,8.64
2022-10-14T22:59:03.387Z,8.57
2022-10-14T23:01:32.203Z,8.57
2022-10-14T23:04:00.566Z,8.48
2022-10-14T23:06:29.506Z,8.47
2022-10-14T23:09:00.450Z,8.47
2022-10-14T23:11:30.484Z,8.39
2022-10-14T23:14:01.465Z,8.38
2022-10-14T23:16:32.605Z,8.32
2022-10-14T23:19:00.537Z,8.21
2022-10-14T23:21:31.373Z,8.20
2022-10-14T23:24:01.774Z,8.13
2022-10-14T23:26:33.192Z,8.18
2022-10-14T23:29:03.272Z,8.07
2022-10-14T23:31:34.066Z,8.11
2022-10-14T23:34:04.814Z,8.13
2022-10-14T23:36:33.402Z,8.07
2022-10-14T23:39:01.079Z,8.03
2022-10-14T23:41:29.010Z,8.04
2022-10-14T23:43:56.990Z,8.07
2022-10-14T23:46:24.810Z,8.08
2022-10-14T23:49:06.949Z,8.00
2022-10-14T23:51:36.070Z,7.87
2022-10-14T23:54:04.453Z,7.83
2022-10-14T23:56:32.222Z,7.86
2022-10-14T23:59:00.043Z,7.84
